createdAt,value
2018-07-19T00:00:19.561Z,0
2018-07-19T00:01:20.320Z,0
2018-07-19T00:02:21.049Z,0
2018-07-19T00:03:21.758Z,0
2018-07-19T00:04:22.481Z,0
2018-07-19T00:05:23.197Z,0
2018-07-19T00:06:23.973Z,0
2018-07-19T00:07:24.713Z,0
2018-07-19T00:08:25.426Z,0
2018-07-19T00:09:26.145Z,0
2018-07-19T00:10:26.870Z,0
2018-07-19T00:11:27.595Z,0
2018-07-19T00:12:28.319Z,0
2018-07-19T00:13:29.055Z,0
2018-07-19T00:14:29.785Z,0
2018-07-19T00:15:30.509Z,0
2018-07-19T00:16:31.239Z,0
2018-07-19T00:17:31.949Z,0
2018-07-19T00:18:32.678Z,0
2018-07-19T00:19:33.407Z,0
2018-07-19T00:20:34.150Z,0
2018-07-19T00:21:34.865Z,0
2018-07-19T00:22:35.598Z,0
2018-07-19T00:23:36.321Z,0
2018-07-19T00:24:37.041Z,0
2018-07-19T00:25:37.776Z,0
2018-07-19T00:26:38.500Z,0
2018-07-19T00:27:39.272Z,0
2018-07-19T00:28:40.001Z,0
2018-07-19T00:29:40.715Z,0
2018-07-19T00:30:41.451Z,0
2018-07-19T00:31:42.182Z,0
2018-07-19T00:32:42.950Z,0
2018-07-19T00:33:43.684Z,0
2018-07-19T00:34:44.403Z,0
2018-07-19T00:35:45.120Z,0
2018-07-19T00:36:45.841Z,0
2018-07-19T00:37:46.949Z,0
2018-07-19T00:38:47.636Z,0
2018-07-19T00:39:48.611Z,0
2018-07-19T00:40:49.328Z,0
2018-07-19T00:41:50.050Z,0
2018-07-19T00:42:50.771Z,0
2018-07-19T00:43:51.487Z,0
2018-07-19T00:44:52.212Z,0
2018-07-19T00:45:52.940Z,0
2018-07-19T00:46:53.665Z,0
2018-07-19T00:47:54.392Z,0
2018-07-19T00:48:55.111Z,0
2018-07-19T00:49:55.883Z,0
2018-07-19T00:50:56.616Z,0
2018-07-19T00:51:57.340Z,0
2018-07-19T00:52:58.056Z,0
2018-07-19T00:53:58.776Z,0
2018-07-19T00:54:59.496Z,0
2018-07-19T00:56:00.208Z,0
2018-07-19T00:57:00.927Z,0
2018-07-19T00:58:01.654Z,0
2018-07-19T00:59:02.374Z,0
2018-07-19T01:00:03.145Z,0
2018-07-19T01:01:03.879Z,0
2018-07-19T01:02:04.606Z,0
2018-07-19T01:03:05.320Z,0
2018-07-19T01:04:06.047Z,0
2018-07-19T01:05:06.777Z,0
2018-07-19T01:06:07.501Z,0
2018-07-19T01:07:08.231Z,0
2018-07-19T01:08:08.945Z,0
2018-07-19T01:09:09.668Z,0
2018-07-19T01:10:10.390Z,0
2018-07-19T01:11:11.114Z,0
2018-07-19T01:12:11.830Z,0
2018-07-19T01:13:12.561Z,0
2018-07-19T01:14:13.284Z,0
2018-07-19T01:15:14.358Z,0
2018-07-19T01:16:15.075Z,0
2018-07-19T01:17:15.794Z,0
2018-07-19T01:18:16.523Z,0
2018-07-19T01:19:17.240Z,0
2018-07-19T01:20:18.013Z,0
2018-07-19T01:21:18.729Z,0
2018-07-19T01:22:19.440Z,0
2018-07-19T01:23:20.154Z,0
2018-07-19T01:24:20.886Z,0
2018-07-19T01:25:21.964Z,0
2018-07-19T01:26:22.692Z,0
2018-07-19T01:27:23.406Z,0
2018-07-19T01:28:24.133Z,0
2018-07-19T01:29:24.844Z,0
2018-07-19T01:30:25.570Z,0
2018-07-19T01:31:26.301Z,0
2018-07-19T01:32:27.031Z,0
2018-07-19T01:33:27.759Z,0
2018-07-19T01:34:28.481Z,0
2018-07-19T01:35:29.222Z,0
2018-07-19T01:36:29.949Z,0
2018-07-19T01:37:30.667Z,0
2018-07-19T01:38:31.392Z,0
2018-07-19T01:39:32.124Z,0
2018-07-19T01:40:32.838Z,0
2018-07-19T01:41:33.568Z,0
2018-07-19T01:42:34.341Z,0
2018-07-19T01:43:35.063Z,0
2018-07-19T01:44:35.785Z,0
2018-07-19T01:45:36.511Z,0
2018-07-19T01:46:37.233Z,0
2018-07-19T01:47:38.259Z,0
2018-07-19T01:48:38.984Z,0
2018-07-19T01:49:39.702Z,0
2018-07-19T01:50:40.435Z,0
2018-07-19T01:51:41.158Z,0
2018-07-19T01:52:41.919Z,0
2018-07-19T01:53:42.647Z,0
2018-07-19T01:54:43.372Z,0
2018-07-19T01:55:44.104Z,0
2018-07-19T01:56:44.833Z,0
2018-07-19T01:57:45.569Z,0
2018-07-19T01:58:46.349Z,0
2018-07-19T01:59:47.067Z,0
2018-07-19T02:00:47.782Z,0
2018-07-19T02:01:48.505Z,0
2018-07-19T02:02:49.218Z,0
2018-07-19T02:03:50.238Z,0
2018-07-19T02:04:50.961Z,0
2018-07-19T02:05:51.675Z,0
2018-07-19T02:06:52.401Z,0
2018-07-19T02:07:53.125Z,0
2018-07-19T02:08:53.849Z,0
2018-07-19T02:09:54.571Z,0
2018-07-19T02:10:55.299Z,0
2018-07-19T02:11:56.030Z,0
2018-07-19T02:12:56.752Z,0
2018-07-19T02:13:57.476Z,0
2018-07-19T02:14:58.193Z,0
2018-07-19T02:15:58.910Z,0
2018-07-19T02:16:59.632Z,0
2018-07-19T02:18:00.355Z,0
2018-07-19T02:19:01.079Z,0
2018-07-19T02:20:01.798Z,0
2018-07-19T02:21:02.513Z,0
2018-07-19T02:22:03.231Z,0
2018-07-19T02:23:03.952Z,0
2018-07-19T02:24:04.673Z,0
2018-07-19T02:25:05.386Z,0
2018-07-19T02:26:06.475Z,0
2018-07-19T02:27:07.183Z,0
2018-07-19T02:28:07.906Z,0
2018-07-19T02:29:08.627Z,0
2018-07-19T02:30:09.351Z,0
2018-07-19T02:31:10.083Z,0
2018-07-19T02:32:10.806Z,0
2018-07-19T02:33:11.533Z,0
2018-07-19T02:34:12.604Z,0
2018-07-19T02:35:13.318Z,0
2018-07-19T02:36:14.042Z,0
2018-07-19T02:37:14.766Z,0
2018-07-19T02:38:15.492Z,0
2018-07-19T02:39:16.214Z,0
2018-07-19T02:40:16.932Z,0
2018-07-19T02:41:17.664Z,0
2018-07-19T02:42:18.377Z,0
2018-07-19T02:43:19.104Z,0
2018-07-19T02:44:19.825Z,0
2018-07-19T02:45:20.558Z,0
2018-07-19T02:46:21.281Z,0
2018-07-19T02:47:21.999Z,0
2018-07-19T02:48:22.725Z,0
2018-07-19T02:49:23.457Z,0
2018-07-19T02:50:24.172Z,0
2018-07-19T02:51:24.886Z,0
2018-07-19T02:52:25.602Z,0
2018-07-19T02:53:26.380Z,0
2018-07-19T02:54:27.105Z,0
2018-07-19T02:55:27.822Z,0
2018-07-19T02:56:28.554Z,0
2018-07-19T02:57:29.269Z,0
2018-07-19T02:58:30.040Z,0
2018-07-19T02:59:30.761Z,0
2018-07-19T03:00:31.492Z,0
2018-07-19T03:01:32.206Z,0
2018-07-19T03:02:32.928Z,0
2018-07-19T03:03:33.704Z,0
2018-07-19T03:04:34.424Z,0
2018-07-19T03:05:35.158Z,0
2018-07-19T03:06:35.929Z,0
2018-07-19T03:07:36.615Z,0
2018-07-19T03:08:37.313Z,0
2018-07-19T03:09:38.100Z,0
2018-07-19T03:10:38.827Z,0
2018-07-19T03:11:39.553Z,0
2018-07-19T03:12:40.275Z,0
2018-07-19T03:13:41.001Z,0
2018-07-19T03:14:42.022Z,0
2018-07-19T03:15:42.751Z,0
2018-07-19T03:16:43.471Z,5
2018-07-19T03:17:44.188Z,5
2018-07-19T03:18:44.924Z,5
2018-07-19T03:19:45.654Z,5
2018-07-19T03:20:46.388Z,5
2018-07-19T03:21:47.164Z,5
2018-07-19T03:22:47.885Z,5
2018-07-19T03:23:48.607Z,5
2018-07-19T03:24:49.330Z,11
2018-07-19T03:25:50.063Z,11
2018-07-19T03:26:50.786Z,11
2018-07-19T03:27:51.511Z,11
2018-07-19T03:28:52.237Z,11
2018-07-19T03:29:52.965Z,16
2018-07-19T03:30:53.793Z,16
2018-07-19T03:31:54.460Z,16
2018-07-19T03:32:55.182Z,16
2018-07-19T03:33:55.913Z,16
2018-07-19T03:34:56.634Z,22
2018-07-19T03:35:57.355Z,22
2018-07-19T03:36:58.132Z,22
2018-07-19T03:37:58.856Z,22
2018-07-19T03:38:59.593Z,28
2018-07-19T03:40:00.321Z,28
2018-07-19T03:41:01.045Z,28
2018-07-19T03:42:01.821Z,28
2018-07-19T03:43:02.540Z,33
2018-07-19T03:44:03.269Z,33
2018-07-19T03:45:03.993Z,33
2018-07-19T03:46:04.725Z,39
2018-07-19T03:47:05.452Z,39
2018-07-19T03:48:06.180Z,39
2018-07-19T03:49:06.902Z,45
2018-07-19T03:50:07.636Z,45
2018-07-19T03:51:08.355Z,45
2018-07-19T03:52:09.088Z,45
2018-07-19T03:53:09.813Z,50
2018-07-19T03:54:10.548Z,50
2018-07-19T03:55:11.276Z,50
2018-07-19T03:56:12.010Z,56
2018-07-19T03:57:12.780Z,56
2018-07-19T03:58:13.500Z,56
2018-07-19T03:59:14.227Z,61
2018-07-19T04:00:14.945Z,61
2018-07-19T04:01:15.680Z,61
2018-07-19T04:02:16.464Z,67
2018-07-19T04:03:17.203Z,67
2018-07-19T04:04:17.925Z,67
2018-07-19T04:05:18.853Z,73
2018-07-19T04:06:19.576Z,73
2018-07-19T04:07:20.304Z,73
2018-07-19T04:08:21.034Z,78
2018-07-19T04:09:21.758Z,78
2018-07-19T04:10:22.490Z,78
2018-07-19T04:11:23.266Z,84
2018-07-19T04:12:23.986Z,84
2018-07-19T04:13:24.714Z,84
2018-07-19T04:14:25.428Z,90
2018-07-19T04:15:26.160Z,90
2018-07-19T04:16:26.888Z,95
2018-07-19T04:17:27.622Z,95
2018-07-19T04:18:28.354Z,95
2018-07-19T04:19:29.084Z,101
2018-07-19T04:20:29.867Z,101
2018-07-19T04:21:30.590Z,101
2018-07-19T04:22:31.319Z,106
2018-07-19T04:23:32.046Z,106
2018-07-19T04:24:32.771Z,112
2018-07-19T04:25:33.548Z,112
2018-07-19T04:26:34.267Z,112
2018-07-19T04:27:34.988Z,118
2018-07-19T04:28:35.723Z,118
2018-07-19T04:29:36.445Z,123
2018-07-19T04:30:37.177Z,123
2018-07-19T04:31:37.899Z,123
2018-07-19T04:32:38.632Z,129
2018-07-19T04:33:39.373Z,129
2018-07-19T04:34:40.452Z,135
2018-07-19T04:35:41.175Z,135
2018-07-19T04:36:41.901Z,140
2018-07-19T04:37:42.622Z,135
2018-07-19T04:38:43.356Z,140
2018-07-19T04:39:44.093Z,140
2018-07-19T04:40:44.853Z,140
2018-07-19T04:41:45.555Z,146
2018-07-19T04:42:46.284Z,146
2018-07-19T04:43:47.003Z,151
2018-07-19T04:44:47.736Z,151
2018-07-19T04:45:48.464Z,157
2018-07-19T04:46:49.198Z,157
2018-07-19T04:47:49.913Z,157
2018-07-19T04:48:50.650Z,163
2018-07-19T04:49:51.423Z,163
2018-07-19T04:50:52.155Z,168
2018-07-19T04:51:52.888Z,168
2018-07-19T04:52:53.614Z,174
2018-07-19T04:53:54.337Z,174
2018-07-19T04:54:55.108Z,180
2018-07-19T04:55:55.828Z,180
2018-07-19T04:56:56.558Z,180
2018-07-19T04:57:57.281Z,180
2018-07-19T04:58:58.011Z,185
2018-07-19T04:59:58.798Z,185
2018-07-19T05:00:59.516Z,191
2018-07-19T05:02:00.260Z,196
2018-07-19T05:03:00.970Z,196
2018-07-19T05:04:01.692Z,202
2018-07-19T05:05:02.765Z,202
2018-07-19T05:06:03.490Z,208
2018-07-19T05:07:04.227Z,213
2018-07-19T05:08:04.962Z,213
2018-07-19T05:09:05.686Z,219
2018-07-19T05:10:07.207Z,219
2018-07-19T05:11:07.941Z,219
2018-07-19T05:12:08.675Z,219
2018-07-19T05:13:09.399Z,225
2018-07-19T05:14:10.176Z,225
2018-07-19T05:15:10.860Z,225
2018-07-19T05:16:11.591Z,230
2018-07-19T05:17:12.312Z,230
2018-07-19T05:18:13.047Z,236
2018-07-19T05:19:13.773Z,241
2018-07-19T05:20:14.498Z,241
2018-07-19T05:21:15.234Z,247
2018-07-19T05:22:15.963Z,258
2018-07-19T05:26:18.699Z,286
2018-07-19T05:27:19.690Z,275
2018-07-19T05:28:20.468Z,292
2018-07-19T05:29:21.189Z,365
2018-07-19T05:30:21.931Z,376
2018-07-19T05:31:22.920Z,348
2018-07-19T05:32:23.644Z,337
2018-07-19T05:33:24.851Z,326
2018-07-19T05:34:25.627Z,354
2018-07-19T05:35:26.341Z,315
2018-07-19T05:36:27.072Z,337
2018-07-19T05:37:27.801Z,365
2018-07-19T05:38:28.535Z,337
2018-07-19T05:39:29.311Z,348
2018-07-19T05:40:30.090Z,365
2018-07-19T05:41:30.785Z,365
2018-07-19T05:42:32.018Z,376
2018-07-19T05:43:33.297Z,399
2018-07-19T05:44:34.105Z,382
2018-07-19T05:45:35.232Z,320
2018-07-19T05:46:35.975Z,348
2018-07-19T05:47:36.811Z,376
2018-07-19T05:48:37.547Z,478
2018-07-19T05:49:38.264Z,618
2018-07-19T05:50:39.366Z,534
2018-07-19T05:51:40.098Z,371
2018-07-19T05:52:40.870Z,427
2018-07-19T05:53:41.681Z,483
2018-07-19T05:54:42.878Z,466
2018-07-19T05:55:43.839Z,466
2018-07-19T05:56:44.666Z,444
2018-07-19T05:57:45.869Z,427
2018-07-19T05:58:46.701Z,421
2018-07-19T05:59:47.450Z,371
2018-07-19T06:00:48.695Z,348
2018-07-19T06:01:49.518Z,360
2018-07-19T06:02:50.664Z,393
2018-07-19T06:03:51.481Z,416
2018-07-19T06:04:52.198Z,348
2018-07-19T06:05:53.440Z,348
2018-07-19T06:06:54.256Z,348
2018-07-19T06:07:54.993Z,348
2018-07-19T06:08:55.715Z,354
2018-07-19T06:09:56.456Z,371
2018-07-19T06:10:57.192Z,382
2018-07-19T06:11:57.931Z,360
2018-07-19T06:12:58.658Z,376
2018-07-19T06:13:59.378Z,371
2018-07-19T06:15:00.110Z,405
2018-07-19T06:16:00.840Z,399
2018-07-19T06:17:01.567Z,393
2018-07-19T06:18:02.293Z,393
2018-07-19T06:19:03.027Z,382
2018-07-19T06:20:03.753Z,382
2018-07-19T06:21:04.479Z,388
2018-07-19T06:22:05.204Z,427
2018-07-19T06:23:05.940Z,478
2018-07-19T06:24:06.660Z,393
2018-07-19T06:25:07.376Z,495
2018-07-19T06:26:08.103Z,590
2018-07-19T06:27:08.835Z,483
2018-07-19T06:28:09.563Z,405
2018-07-19T06:29:10.296Z,405
2018-07-19T06:30:11.089Z,399
2018-07-19T06:31:11.832Z,405
2018-07-19T06:32:12.572Z,416
2018-07-19T06:33:13.300Z,427
2018-07-19T06:34:14.035Z,410
2018-07-19T06:35:14.756Z,410
2018-07-19T06:36:15.491Z,433
2018-07-19T06:37:16.217Z,410
2018-07-19T06:38:16.943Z,416
2018-07-19T06:39:17.675Z,421
2018-07-19T06:40:18.474Z,416
2018-07-19T06:41:19.256Z,472
2018-07-19T06:42:19.919Z,421
2018-07-19T06:43:20.663Z,427
2018-07-19T06:44:21.378Z,427
2018-07-19T06:45:22.104Z,433
2018-07-19T06:46:22.861Z,438
2018-07-19T06:47:23.585Z,444
2018-07-19T06:48:24.325Z,438
2018-07-19T06:49:25.101Z,500
2018-07-19T06:50:25.809Z,489
2018-07-19T06:51:26.542Z,444
2018-07-19T06:52:27.271Z,450
2018-07-19T06:53:28.026Z,551
2018-07-19T06:54:28.747Z,472
2018-07-19T06:55:29.490Z,455
2018-07-19T06:56:30.223Z,461
2018-07-19T06:57:30.971Z,517
2018-07-19T06:58:31.690Z,466
2018-07-19T06:59:32.765Z,472
2018-07-19T07:00:33.486Z,472
2018-07-19T07:01:34.272Z,472
2018-07-19T07:02:34.997Z,478
2018-07-19T07:03:35.782Z,489
2018-07-19T07:04:36.458Z,483
2018-07-19T07:05:37.235Z,495
2018-07-19T07:06:37.969Z,495
2018-07-19T07:07:38.696Z,495
2018-07-19T07:08:39.418Z,500
2018-07-19T07:09:40.143Z,579
2018-07-19T07:10:40.928Z,506
2018-07-19T07:11:41.664Z,511
2018-07-19T07:12:42.384Z,517
2018-07-19T07:13:43.103Z,573
2018-07-19T07:14:43.824Z,686
2018-07-19T07:15:44.566Z,781
2018-07-19T07:16:45.291Z,866
2018-07-19T07:17:46.035Z,1485
2018-07-19T07:18:46.760Z,1614
2018-07-19T07:19:47.500Z,1625
2018-07-19T07:20:48.278Z,1603
2018-07-19T07:21:49.005Z,1136
2018-07-19T07:22:49.742Z,1406
2018-07-19T07:23:50.472Z,725
2018-07-19T07:24:51.200Z,703
2018-07-19T07:25:52.279Z,590
2018-07-19T07:26:53.008Z,646
2018-07-19T07:27:53.740Z,1575
2018-07-19T07:28:54.476Z,1158
2018-07-19T07:29:55.201Z,686
2018-07-19T07:30:55.930Z,961
2018-07-19T07:31:56.658Z,2143
2018-07-19T07:32:57.403Z,1653
2018-07-19T07:33:58.134Z,2221
2018-07-19T07:34:58.877Z,2216
2018-07-19T07:35:59.664Z,2272
2018-07-19T07:37:00.398Z,2306
2018-07-19T07:38:01.129Z,601
2018-07-19T07:39:01.924Z,2351
2018-07-19T07:40:02.591Z,2351
2018-07-19T07:41:03.332Z,2340
2018-07-19T07:42:04.057Z,2328
2018-07-19T07:43:04.800Z,2306
2018-07-19T07:44:05.563Z,2300
2018-07-19T07:45:06.282Z,2317
2018-07-19T07:46:07.021Z,2340
2018-07-19T07:47:07.767Z,2356
2018-07-19T07:48:08.501Z,2396
2018-07-19T07:49:09.271Z,2441
2018-07-19T07:50:10.012Z,2486
2018-07-19T07:51:10.750Z,2525
2018-07-19T07:52:11.488Z,2570
2018-07-19T07:53:12.220Z,2581
2018-07-19T07:54:12.993Z,2570
2018-07-19T07:55:13.692Z,2531
2018-07-19T07:56:14.426Z,2469
2018-07-19T07:57:15.152Z,2430
2018-07-19T07:58:15.933Z,2362
2018-07-19T07:59:16.677Z,2334
2018-07-19T08:00:17.398Z,2323
2018-07-19T08:01:18.138Z,2340
2018-07-19T08:02:18.880Z,2351
2018-07-19T08:03:20.299Z,2362
2018-07-19T08:04:21.025Z,2390
2018-07-19T08:05:21.755Z,2424
2018-07-19T08:06:22.498Z,2463
2018-07-19T08:07:23.224Z,2525
2018-07-19T08:08:23.961Z,2598
2018-07-19T08:09:24.688Z,2683
2018-07-19T08:10:25.448Z,2739
2018-07-19T08:11:26.183Z,2801
2018-07-19T08:12:26.920Z,2857
2018-07-19T08:13:27.654Z,2885
2018-07-19T08:14:28.386Z,2908
2018-07-19T08:15:29.120Z,2885
2018-07-19T08:16:30.617Z,2846
2018-07-19T08:17:31.402Z,2818
2018-07-19T08:18:32.426Z,2812
2018-07-19T08:19:33.458Z,2806
2018-07-19T08:20:34.182Z,2812
2018-07-19T08:21:34.922Z,2818
2018-07-19T08:22:35.658Z,2835
2018-07-19T08:23:36.738Z,2846
2018-07-19T08:24:37.482Z,2846
2018-07-19T08:25:38.212Z,2846
2018-07-19T08:26:38.957Z,2857
2018-07-19T08:27:39.695Z,2885
2018-07-19T08:28:40.478Z,2851
2018-07-19T08:29:41.231Z,2857
2018-07-19T08:30:41.975Z,2880
2018-07-19T08:31:42.712Z,2885
2018-07-19T08:32:43.459Z,2913
2018-07-19T08:33:44.180Z,2947
2018-07-19T08:34:44.915Z,2958
2018-07-19T08:35:45.678Z,2936
2018-07-19T08:36:46.393Z,2941
2018-07-19T08:37:47.120Z,2992
2018-07-19T08:38:47.859Z,3015
2018-07-19T08:39:48.596Z,3071
2018-07-19T08:40:49.334Z,3099
2018-07-19T08:41:50.129Z,3110
2018-07-19T08:42:50.815Z,3116
2018-07-19T08:43:51.598Z,3133
2018-07-19T08:44:52.338Z,3121
2018-07-19T08:45:53.079Z,3099
2018-07-19T08:46:54.066Z,3060
2018-07-19T08:47:54.799Z,3071
2018-07-19T08:48:55.610Z,3026
2018-07-19T08:49:56.875Z,2998
2018-07-19T08:50:58.087Z,2958
2018-07-19T08:51:58.990Z,2913
2018-07-19T08:52:59.725Z,2913
2018-07-19T08:54:00.460Z,2970
2018-07-19T08:55:01.192Z,3037
2018-07-19T08:56:01.933Z,3088
2018-07-19T08:57:02.672Z,3150
2018-07-19T08:58:03.416Z,3217
2018-07-19T08:59:04.150Z,3279
2018-07-19T09:00:04.882Z,3313
2018-07-19T09:01:05.609Z,3324
2018-07-19T09:02:06.347Z,3251
2018-07-19T09:03:07.149Z,3189
2018-07-19T09:04:07.878Z,3178
2018-07-19T09:05:08.621Z,3200
2018-07-19T09:06:09.351Z,3206
2018-07-19T09:07:10.082Z,3200
2018-07-19T09:08:10.817Z,3206
2018-07-19T09:09:11.564Z,3200
2018-07-19T09:10:12.306Z,3223
2018-07-19T09:11:13.047Z,3279
2018-07-19T09:12:13.780Z,3307
2018-07-19T09:13:14.525Z,3279
2018-07-19T09:14:15.276Z,3251
2018-07-19T09:15:15.994Z,3245
2018-07-19T09:16:16.727Z,3251
2018-07-19T09:17:17.461Z,3234
2018-07-19T09:18:18.196Z,3251
2018-07-19T09:19:18.952Z,3262
2018-07-19T09:20:19.673Z,3251
2018-07-19T09:21:20.406Z,3262
2018-07-19T09:22:21.136Z,3256
2018-07-19T09:23:21.873Z,3273
2018-07-19T09:24:22.606Z,3296
2018-07-19T09:25:23.321Z,3324
2018-07-19T09:26:24.059Z,3335
2018-07-19T09:27:24.794Z,3363
2018-07-19T09:28:25.537Z,3375
2018-07-19T09:29:26.273Z,3358
2018-07-19T09:30:27.054Z,3330
2018-07-19T09:31:27.788Z,3296
2018-07-19T09:32:28.524Z,3279
2018-07-19T09:33:29.261Z,3262
2018-07-19T09:34:30.017Z,3296
2018-07-19T09:35:30.805Z,3318
2018-07-19T09:36:31.853Z,3341
2018-07-19T09:37:32.587Z,3369
2018-07-19T09:38:33.363Z,3363
2018-07-19T09:39:34.073Z,3369
2018-07-19T09:40:34.801Z,3352
2018-07-19T09:41:35.591Z,3369
2018-07-19T09:42:36.315Z,3318
2018-07-19T09:43:37.104Z,3375
2018-07-19T09:44:38.119Z,3391
2018-07-19T09:45:38.839Z,3363
2018-07-19T09:46:39.647Z,3448
2018-07-19T09:47:40.366Z,3431
2018-07-19T09:48:41.835Z,3481
2018-07-19T09:49:42.799Z,3459
2018-07-19T09:50:44.300Z,3425
2018-07-19T09:51:45.456Z,3487
2018-07-19T09:52:46.200Z,3459
2018-07-19T09:53:48.342Z,3470
2018-07-19T09:54:49.463Z,3510
2018-07-19T09:55:51.409Z,3526
2018-07-19T09:56:52.345Z,3555
2018-07-19T09:57:53.080Z,3571
2018-07-19T09:58:53.818Z,3600
2018-07-19T09:59:54.610Z,3600
2018-07-19T10:00:55.350Z,3538
2018-07-19T10:01:56.107Z,3571
2018-07-19T10:02:56.887Z,3588
2018-07-19T10:03:57.620Z,3616
2018-07-19T10:04:58.360Z,3628
2018-07-19T10:05:59.095Z,3673
2018-07-19T10:06:59.833Z,3684
2018-07-19T10:08:00.588Z,3723
2018-07-19T10:09:01.312Z,3735
2018-07-19T10:10:02.167Z,3746
2018-07-19T10:11:02.843Z,3718
2018-07-19T10:12:03.628Z,3723
2018-07-19T10:13:04.352Z,3695
2018-07-19T10:14:05.078Z,3667
2018-07-19T10:15:05.801Z,3633
2018-07-19T10:16:06.550Z,3605
2018-07-19T10:17:07.300Z,3594
2018-07-19T10:18:08.032Z,3611
2018-07-19T10:19:08.768Z,3633
2018-07-19T10:20:09.516Z,3639
2018-07-19T10:21:10.669Z,3628
2018-07-19T10:22:11.456Z,3611
2018-07-19T10:23:12.206Z,3594
2018-07-19T10:24:12.963Z,3605
2018-07-19T10:25:13.687Z,3673
2018-07-19T10:26:14.432Z,3695
2018-07-19T10:27:15.170Z,3712
2018-07-19T10:28:15.910Z,3712
2018-07-19T10:29:16.647Z,3712
2018-07-19T10:30:17.426Z,3684
2018-07-19T10:31:18.128Z,3684
2018-07-19T10:32:18.986Z,3661
2018-07-19T10:33:19.608Z,3650
2018-07-19T10:34:20.362Z,3633
2018-07-19T10:35:21.089Z,3661
2018-07-19T10:36:21.834Z,3695
2018-07-19T10:37:22.575Z,3723
2018-07-19T10:38:23.356Z,3763
2018-07-19T10:39:24.056Z,3746
2018-07-19T10:40:24.780Z,3746
2018-07-19T10:41:25.519Z,3729
2018-07-19T10:42:26.258Z,3712
2018-07-19T10:43:27.281Z,3718
2018-07-19T10:44:28.076Z,3695
2018-07-19T10:45:28.739Z,3645
2018-07-19T10:46:29.489Z,3633
2018-07-19T10:47:30.245Z,3656
2018-07-19T10:48:31.333Z,3667
2018-07-19T10:49:32.074Z,3667
2018-07-19T10:50:32.796Z,3684
2018-07-19T10:51:33.550Z,3701
2018-07-19T10:52:34.290Z,3701
2018-07-19T10:53:35.034Z,3695
2018-07-19T10:54:35.772Z,3684
2018-07-19T10:55:36.812Z,3661
2018-07-19T10:56:37.550Z,3667
2018-07-19T10:57:38.938Z,3690
2018-07-19T10:58:39.664Z,3740
2018-07-19T10:59:40.407Z,3813
2018-07-19T11:00:41.185Z,3836
2018-07-19T11:01:41.938Z,3825
2018-07-19T11:02:42.711Z,3841
2018-07-19T11:03:43.406Z,3847
2018-07-19T11:04:44.174Z,3836
2018-07-19T11:05:44.914Z,3836
2018-07-19T11:06:45.909Z,3802
2018-07-19T11:07:46.634Z,3768
2018-07-19T11:08:47.374Z,3751
2018-07-19T11:09:48.200Z,3757
2018-07-19T11:10:48.910Z,3780
2018-07-19T11:11:49.646Z,3780
2018-07-19T11:12:50.376Z,3791
2018-07-19T11:13:51.101Z,3785
2018-07-19T11:14:51.877Z,3746
2018-07-19T11:15:52.629Z,3695
2018-07-19T11:16:53.420Z,3678
2018-07-19T11:17:54.144Z,3611
2018-07-19T11:18:54.881Z,3549
2018-07-19T11:19:55.630Z,3504
2018-07-19T11:20:56.618Z,3543
2018-07-19T11:21:57.665Z,3543
2018-07-19T11:22:58.423Z,3448
2018-07-19T11:23:59.150Z,3459
2018-07-19T11:24:59.896Z,3470
2018-07-19T11:26:00.626Z,3515
2018-07-19T11:27:01.370Z,3526
2018-07-19T11:28:02.111Z,3448
2018-07-19T11:29:02.840Z,3391
2018-07-19T11:30:03.588Z,3459
2018-07-19T11:31:04.328Z,3498
2018-07-19T11:32:05.077Z,3487
2018-07-19T11:33:05.809Z,3476
2018-07-19T11:34:06.549Z,3481
2018-07-19T11:35:07.298Z,3487
2018-07-19T11:36:08.036Z,3538
2018-07-19T11:37:08.784Z,3555
2018-07-19T11:38:09.526Z,3571
2018-07-19T11:39:10.255Z,3566
2018-07-19T11:40:11.058Z,3543
2018-07-19T11:41:12.848Z,3526
2018-07-19T11:42:13.764Z,3521
2018-07-19T11:43:14.856Z,3487
2018-07-19T11:44:15.591Z,3448
2018-07-19T11:45:16.330Z,3448
2018-07-19T11:46:18.001Z,3504
2018-07-19T11:47:18.759Z,3594
2018-07-19T11:48:19.498Z,3650
2018-07-19T11:49:20.236Z,3723
2018-07-19T11:50:20.992Z,3768
2018-07-19T11:51:21.730Z,3796
2018-07-19T11:52:22.521Z,3808
2018-07-19T11:53:23.257Z,3780
2018-07-19T11:54:24.005Z,3746
2018-07-19T11:55:24.748Z,3701
2018-07-19T11:56:25.491Z,3678
2018-07-19T11:57:26.280Z,3667
2018-07-19T11:58:27.021Z,3690
2018-07-19T11:59:27.753Z,3729
2018-07-19T12:00:28.497Z,3774
2018-07-19T12:01:29.227Z,3785
2018-07-19T12:02:29.985Z,3774
2018-07-19T12:03:30.718Z,3751
2018-07-19T12:04:31.466Z,3729
2018-07-19T12:05:32.202Z,3678
2018-07-19T12:06:32.949Z,3661
2018-07-19T12:07:33.958Z,3650
2018-07-19T12:08:34.690Z,3622
2018-07-19T12:09:35.472Z,3622
2018-07-19T12:10:36.196Z,3628
2018-07-19T12:11:36.929Z,3650
2018-07-19T12:12:37.668Z,3645
2018-07-19T12:13:38.465Z,3639
2018-07-19T12:14:39.204Z,3661
2018-07-19T12:15:39.949Z,3678
2018-07-19T12:16:40.683Z,3701
2018-07-19T12:17:41.429Z,3701
2018-07-19T12:18:42.225Z,3723
2018-07-19T12:19:42.963Z,3735
2018-07-19T12:20:43.698Z,3780
2018-07-19T12:21:44.443Z,3796
2018-07-19T12:22:45.183Z,3813
2018-07-19T12:23:45.931Z,3813
2018-07-19T12:24:46.669Z,3791
2018-07-19T12:25:47.407Z,3768
2018-07-19T12:26:48.146Z,3751
2018-07-19T12:27:48.894Z,3695
2018-07-19T12:28:49.628Z,3633
2018-07-19T12:29:50.368Z,3588
2018-07-19T12:30:51.100Z,3566
2018-07-19T12:31:52.187Z,3510
2018-07-19T12:32:52.917Z,3470
2018-07-19T12:33:53.664Z,3442
2018-07-19T12:34:54.402Z,3408
2018-07-19T12:35:55.144Z,3341
2018-07-19T12:36:55.938Z,3335
2018-07-19T12:37:56.622Z,3375
2018-07-19T12:38:57.349Z,3397
2018-07-19T12:39:58.101Z,3436
2018-07-19T12:40:58.835Z,3538
2018-07-19T12:41:59.583Z,3583
2018-07-19T12:43:00.569Z,3616
2018-07-19T12:44:01.292Z,3712
2018-07-19T12:45:02.536Z,3645
2018-07-19T12:46:03.534Z,3583
2018-07-19T12:47:04.267Z,3358
2018-07-19T12:48:05.273Z,3526
2018-07-19T12:49:06.134Z,3555
2018-07-19T12:50:06.856Z,3605
2018-07-19T12:51:07.596Z,3583
2018-07-19T12:52:08.774Z,3577
2018-07-19T12:53:09.863Z,3616
2018-07-19T12:54:10.599Z,3628
2018-07-19T12:55:11.328Z,3622
2018-07-19T12:56:12.082Z,3622
2018-07-19T12:57:13.513Z,3645
2018-07-19T12:58:14.250Z,3656
2018-07-19T12:59:15.006Z,3633
2018-07-19T13:00:15.778Z,3594
2018-07-19T13:01:16.508Z,3611
2018-07-19T13:02:17.300Z,3656
2018-07-19T13:03:18.048Z,3701
2018-07-19T13:04:18.864Z,3735
2018-07-19T13:05:19.603Z,3757
2018-07-19T13:06:20.341Z,3740
2018-07-19T13:07:21.080Z,3746
2018-07-19T13:08:21.824Z,3768
2018-07-19T13:09:22.563Z,3796
2018-07-19T13:10:23.305Z,3802
2018-07-19T13:11:24.048Z,3813
2018-07-19T13:12:24.788Z,3825
2018-07-19T13:13:25.891Z,3830
2018-07-19T13:14:26.623Z,3802
2018-07-19T13:15:27.366Z,3785
2018-07-19T13:16:28.099Z,3791
2018-07-19T13:17:28.843Z,3757
2018-07-19T13:18:29.973Z,3701
2018-07-19T13:19:30.716Z,3656
2018-07-19T13:20:31.463Z,2880
2018-07-19T13:21:32.201Z,2919
2018-07-19T13:22:32.940Z,3172
2018-07-19T13:23:33.680Z,3088
2018-07-19T13:24:34.427Z,2992
2018-07-19T13:25:35.171Z,3048
2018-07-19T13:26:36.172Z,3105
2018-07-19T13:27:37.167Z,3234
2018-07-19T13:28:37.902Z,3352
2018-07-19T13:29:38.668Z,3476
2018-07-19T13:30:39.398Z,3515
2018-07-19T13:31:40.136Z,2008
2018-07-19T13:32:40.878Z,2250
2018-07-19T13:33:41.713Z,2812
2018-07-19T13:34:42.460Z,2345
2018-07-19T13:35:43.198Z,3318
2018-07-19T13:36:44.020Z,3195
2018-07-19T13:37:44.678Z,3155
2018-07-19T13:38:45.428Z,3155
2018-07-19T13:39:46.175Z,3105
2018-07-19T13:40:46.940Z,3065
2018-07-19T13:41:47.678Z,3048
2018-07-19T13:42:49.050Z,3076
2018-07-19T13:43:49.796Z,3127
2018-07-19T13:44:50.541Z,3088
2018-07-19T13:45:51.287Z,3065
2018-07-19T13:46:52.029Z,2896
2018-07-19T13:47:52.849Z,2981
2018-07-19T13:48:53.589Z,2992
2018-07-19T13:49:54.333Z,3020
2018-07-19T13:50:55.086Z,2958
2018-07-19T13:51:55.857Z,1693
2018-07-19T13:52:56.644Z,798
2018-07-19T13:53:57.383Z,759
2018-07-19T13:54:58.118Z,720
2018-07-19T13:55:58.864Z,1946
2018-07-19T13:56:59.620Z,855
2018-07-19T13:58:00.357Z,1085
2018-07-19T13:59:01.115Z,2666
2018-07-19T14:00:01.868Z,2773
2018-07-19T14:01:02.632Z,2902
2018-07-19T14:02:03.370Z,1710